createdAt,value
2019-05-07T00:00:57.173Z,49.20
2019-05-07T00:03:26.413Z,49.20
2019-05-07T00:05:55.635Z,49.20
2019-05-07T00:08:24.888Z,49.40
2019-05-07T00:10:54.178Z,49.40
2019-05-07T00:13:23.433Z,49.30
2019-05-07T00:15:52.882Z,49.50
2019-05-07T00:18:22.963Z,50.20
2019-05-07T00:20:53.016Z,49.60
2019-05-07T00:23:23.233Z,49.60
2019-05-07T00:25:53.025Z,49.50
2019-05-07T00:28:23.159Z,49.50
2019-05-07T00:30:52.486Z,49.70
2019-05-07T00:33:22.783Z,49.60
2019-05-07T00:35:54.135Z,49.60
2019-05-07T00:38:25.007Z,49.80
2019-05-07T00:41:12.353Z,49.70
2019-05-07T00:43:43.591Z,49.60
2019-05-07T00:46:14.582Z,49.80
2019-05-07T00:48:44.142Z,49.80
2019-05-07T00:51:24.235Z,49.70
2019-05-07T00:53:53.613Z,49.80
2019-05-07T00:56:22.869Z,49.80
2019-05-07T00:58:52.777Z,49.90
2019-05-07T01:01:22.820Z,49.90
2019-05-07T01:03:53.331Z,49.90
2019-05-07T01:06:26.398Z,50.00
2019-05-07T01:08:53.882Z,50.00
2019-05-07T01:11:23.207Z,50.00
2019-05-07T01:13:52.458Z,50.10
2019-05-07T01:16:22.340Z,50.30
2019-05-07T01:18:53.746Z,50.00
2019-05-07T01:21:22.855Z,50.10
2019-05-07T01:23:52.365Z,50.00
2019-05-07T01:26:22.138Z,50.20
2019-05-07T01:29:02.917Z,50.00
2019-05-07T01:31:34.724Z,50.20
2019-05-07T01:34:08.709Z,50.20
2019-05-07T01:36:37.941Z,50.30
2019-05-07T01:39:07.242Z,50.10
2019-05-07T01:41:36.530Z,50.30
2019-05-07T01:44:05.845Z,50.20
2019-05-07T01:46:35.159Z,50.30
2019-05-07T01:49:04.404Z,50.30
2019-05-07T01:51:33.733Z,50.20
2019-05-07T01:54:03.115Z,50.30
2019-05-07T01:56:33.133Z,50.30
2019-05-07T01:59:02.709Z,50.20
2019-05-07T02:01:33.152Z,50.30
2019-05-07T02:04:04.781Z,50.40
2019-05-07T02:06:42.921Z,50.50
2019-05-07T02:09:25.768Z,50.40
2019-05-07T02:12:02.864Z,50.40
2019-05-07T02:14:33.049Z,50.50
2019-05-07T02:17:03.110Z,50.50
2019-05-07T02:19:33.042Z,50.50
2019-05-07T02:22:02.906Z,50.60
2019-05-07T02:24:33.869Z,50.60
2019-05-07T02:27:03.349Z,50.60
2019-05-07T02:29:32.626Z,50.60
2019-05-07T02:32:04.612Z,50.60
2019-05-07T02:34:34.212Z,50.70
2019-05-07T02:37:05.688Z,50.70
2019-05-07T02:39:39.310Z,50.60
2019-05-07T02:42:13.098Z,50.60
2019-05-07T02:44:59.446Z,50.80
2019-05-07T02:47:33.097Z,50.80
2019-05-07T02:50:03.426Z,50.70
2019-05-07T02:52:53.694Z,50.70
2019-05-07T02:55:26.277Z,50.90
2019-05-07T02:57:55.521Z,50.80
2019-05-07T03:00:24.858Z,50.80
2019-05-07T03:02:54.176Z,50.80
2019-05-07T03:05:23.455Z,50.70
2019-05-07T03:07:53.681Z,50.80
2019-05-07T03:10:23.961Z,50.80
2019-05-07T03:12:53.828Z,50.90
2019-05-07T03:15:24.331Z,50.80
2019-05-07T03:17:54.077Z,50.90
2019-05-07T03:20:25.175Z,51.00
2019-05-07T03:22:55.673Z,51.00
2019-05-07T03:25:33.825Z,50.90
2019-05-07T03:28:04.377Z,51.00
2019-05-07T03:30:36.429Z,51.00
2019-05-07T03:33:16.190Z,50.90
2019-05-07T03:35:56.242Z,51.00
2019-05-07T03:38:23.069Z,50.90
2019-05-07T03:40:53.251Z,51.10
2019-05-07T03:43:24.474Z,51.10
2019-05-07T03:46:03.534Z,51.10
2019-05-07T03:48:34.006Z,51.20
2019-05-07T03:51:03.837Z,51.20
2019-05-07T03:53:34.106Z,51.20
2019-05-07T03:56:04.394Z,51.30
2019-05-07T03:58:34.364Z,51.30
2019-05-07T04:01:04.509Z,51.40
2019-05-07T04:03:34.593Z,52.10
2019-05-07T04:06:04.359Z,51.50
2019-05-07T04:08:33.817Z,51.50
2019-05-07T04:11:03.958Z,51.60
2019-05-07T04:13:33.931Z,51.60
2019-05-07T04:16:04.364Z,51.60
2019-05-07T04:18:34.090Z,51.50
2019-05-07T04:21:04.071Z,51.60
2019-05-07T04:23:34.387Z,51.70
2019-05-07T04:26:13.422Z,51.70
2019-05-07T04:28:53.703Z,51.70
2019-05-07T04:31:22.949Z,51.80
2019-05-07T04:33:53.307Z,51.80
2019-05-07T04:36:24.458Z,51.90
2019-05-07T04:38:53.665Z,52.00
2019-05-07T04:41:23.496Z,52.00
2019-05-07T04:43:54.119Z,52.00
2019-05-07T04:46:23.946Z,52.00
2019-05-07T04:48:53.290Z,52.10
2019-05-07T04:51:24.162Z,52.10
2019-05-07T04:53:54.117Z,52.10
2019-05-07T04:56:24.078Z,52.20
2019-05-07T04:58:53.497Z,52.30
2019-05-07T05:01:24.358Z,52.20
2019-05-07T05:03:54.219Z,52.40
2019-05-07T05:06:24.322Z,52.40
2019-05-07T05:08:56.263Z,52.40
2019-05-07T05:11:24.724Z,52.50
2019-05-07T05:13:54.290Z,52.50
2019-05-07T05:16:24.766Z,52.50
2019-05-07T05:18:55.190Z,52.50
2019-05-07T05:21:26.078Z,52.60
2019-05-07T05:24:02.668Z,52.70
2019-05-07T05:26:32.464Z,52.70
2019-05-07T05:29:02.482Z,52.70
2019-05-07T05:31:33.065Z,52.80
2019-05-07T05:34:02.496Z,52.90
2019-05-07T05:36:32.948Z,52.90
2019-05-07T05:39:02.684Z,53.00
2019-05-07T05:41:34.517Z,52.90
2019-05-07T05:44:06.308Z,53.00
2019-05-07T05:46:35.535Z,53.00
2019-05-07T05:49:04.766Z,53.00
2019-05-07T05:51:35.629Z,53.10
2019-05-07T05:54:06.474Z,53.10
2019-05-07T05:56:39.829Z,53.00
2019-05-07T05:59:23.736Z,53.20
2019-05-07T06:01:48.688Z,53.20
2019-05-07T06:04:21.974Z,53.20
2019-05-07T06:07:01.171Z,53.20
2019-05-07T06:09:33.771Z,53.30
2019-05-07T06:12:22.145Z,53.30
2019-05-07T06:15:02.277Z,53.50
2019-05-07T06:17:33.190Z,53.30
2019-05-07T06:20:04.088Z,53.40
2019-05-07T06:22:34.981Z,53.50
2019-05-07T06:25:19.748Z,53.50
2019-05-07T06:27:49.014Z,53.80
2019-05-07T06:30:18.682Z,53.70
2019-05-07T06:32:48.037Z,53.70
2019-05-07T06:35:19.375Z,53.80
2019-05-07T06:37:48.263Z,53.80
2019-05-07T06:40:26.411Z,53.90
2019-05-07T06:43:06.496Z,54.00
2019-05-07T06:45:37.389Z,54.10
2019-05-07T06:48:06.668Z,54.20
2019-05-07T06:50:35.911Z,54.30
2019-05-07T06:53:05.186Z,54.20
2019-05-07T06:55:34.770Z,54.20
2019-05-07T06:58:05.381Z,54.30
2019-05-07T07:00:39.104Z,54.00
2019-05-07T07:03:26.098Z,53.90
2019-05-07T07:05:56.959Z,53.90
2019-05-07T07:08:33.564Z,53.90
2019-05-07T07:11:13.347Z,53.80
2019-05-07T07:13:42.753Z,53.90
2019-05-07T07:16:12.731Z,53.90
2019-05-07T07:18:51.827Z,53.90
2019-05-07T07:21:13.225Z,54.10
2019-05-07T07:23:43.058Z,54.00
2019-05-07T07:26:12.751Z,54.10
2019-05-07T07:28:42.948Z,54.00
2019-05-07T07:31:16.976Z,54.00
2019-05-07T07:33:47.864Z,53.90
2019-05-07T07:36:17.342Z,53.90
2019-05-07T07:38:46.584Z,54.10
2019-05-07T07:41:17.558Z,54.00
2019-05-07T07:43:46.855Z,53.80
2019-05-07T07:46:16.599Z,53.90
2019-05-07T07:48:46.057Z,53.80
2019-05-07T07:51:15.323Z,53.80
2019-05-07T07:53:44.683Z,53.60
2019-05-07T07:56:48.322Z,53.60
2019-05-07T07:59:22.151Z,53.60
2019-05-07T08:02:08.303Z,53.50
2019-05-07T08:04:37.533Z,53.40
2019-05-07T08:07:06.769Z,53.40
2019-05-07T08:09:36.077Z,53.30
2019-05-07T08:12:05.590Z,53.20
2019-05-07T08:14:34.960Z,53.10
2019-05-07T08:17:05.808Z,53.30
2019-05-07T08:19:35.031Z,52.80
2019-05-07T08:22:04.246Z,52.80
2019-05-07T08:24:33.657Z,52.70
2019-05-07T08:27:02.887Z,52.60
2019-05-07T08:29:32.695Z,52.60
2019-05-07T08:32:04.534Z,52.30
2019-05-07T08:34:38.108Z,52.30
2019-05-07T08:37:07.338Z,52.10
2019-05-07T08:39:36.552Z,52.20
2019-05-07T08:42:05.775Z,52.30
2019-05-07T08:44:36.632Z,52.30
2019-05-07T08:47:19.539Z,52.20
2019-05-07T08:49:48.776Z,52.10
2019-05-07T08:52:17.990Z,52.00
2019-05-07T08:54:47.305Z,52.00
2019-05-07T08:57:16.542Z,51.90
2019-05-07T08:59:57.398Z,51.80
2019-05-07T09:02:16.754Z,51.60
2019-05-07T09:04:45.968Z,51.50
2019-05-07T09:07:15.233Z,51.30
2019-05-07T09:09:44.452Z,51.10
2019-05-07T09:12:13.681Z,50.90
2019-05-07T09:14:42.890Z,50.50
2019-05-07T09:17:12.732Z,50.50
2019-05-07T09:19:51.529Z,50.60
2019-05-07T09:22:16.375Z,50.70
2019-05-07T09:24:45.616Z,50.60
2019-05-07T09:27:22.358Z,50.60
2019-05-07T09:29:56.256Z,50.40
2019-05-07T09:32:32.886Z,50.40
2019-05-07T09:35:15.949Z,50.50
2019-05-07T09:37:45.193Z,50.60
2019-05-07T09:40:14.395Z,50.60
2019-05-07T09:42:43.616Z,50.50
2019-05-07T09:45:12.907Z,50.40
2019-05-07T09:47:42.208Z,49.90
2019-05-07T09:50:12.008Z,49.80
2019-05-07T09:52:42.681Z,49.60
2019-05-07T09:55:17.141Z,49.50
2019-05-07T09:57:43.013Z,49.40
2019-05-07T10:00:12.521Z,49.70
2019-05-07T10:02:42.455Z,49.30
2019-05-07T10:05:11.996Z,49.10
2019-05-07T10:07:42.383Z,49.00
2019-05-07T10:10:12.077Z,48.90
2019-05-07T10:12:55.006Z,48.80
2019-05-07T10:15:24.215Z,48.80
2019-05-07T10:17:58.121Z,48.50
2019-05-07T10:20:27.354Z,48.30
2019-05-07T10:22:56.599Z,48.10
2019-05-07T10:25:27.482Z,47.90
2019-05-07T10:27:56.721Z,47.90
2019-05-07T10:30:25.908Z,47.70
2019-05-07T10:32:55.155Z,47.40
2019-05-07T10:35:24.375Z,47.40
2019-05-07T10:37:53.625Z,47.00
2019-05-07T10:40:23.515Z,47.10
2019-05-07T10:42:52.733Z,47.20
2019-05-07T10:45:29.708Z,46.90
2019-05-07T10:48:15.585Z,46.40
2019-05-07T10:51:02.114Z,46.20
2019-05-07T10:53:32.066Z,46.80
2019-05-07T10:56:02.675Z,46.00
2019-05-07T10:58:32.241Z,46.00
2019-05-07T11:01:02.892Z,46.20
2019-05-07T11:03:32.599Z,46.50
2019-05-07T11:06:01.928Z,45.90
2019-05-07T11:08:32.895Z,45.50
2019-05-07T11:11:02.909Z,45.40
2019-05-07T11:13:32.505Z,45.40
2019-05-07T11:16:03.354Z,45.40
2019-05-07T11:18:34.239Z,45.30
2019-05-07T11:21:03.528Z,45.00
2019-05-07T11:23:32.932Z,44.90
2019-05-07T11:26:02.526Z,44.80
2019-05-07T11:28:32.560Z,44.90
2019-05-07T11:31:02.226Z,44.70
2019-05-07T11:33:32.594Z,44.50
2019-05-07T11:36:02.258Z,44.40
2019-05-07T11:38:33.384Z,44.20
2019-05-07T11:41:02.543Z,44.40
2019-05-07T11:43:33.620Z,44.40
2019-05-07T11:46:19.569Z,44.50
2019-05-07T11:49:08.296Z,44.30
2019-05-07T11:51:42.619Z,44.00
2019-05-07T11:54:13.577Z,44.10
2019-05-07T11:56:42.774Z,44.10
2019-05-07T11:59:13.417Z,44.00
2019-05-07T12:01:47.680Z,44.00
2019-05-07T12:04:15.674Z,43.90
2019-05-07T12:06:44.875Z,43.90
2019-05-07T12:09:14.084Z,43.70
2019-05-07T12:11:43.327Z,43.90
2019-05-07T12:14:12.604Z,43.60
2019-05-07T12:16:42.531Z,43.90
2019-05-07T12:19:13.132Z,43.80
2019-05-07T12:21:43.094Z,43.50
2019-05-07T12:24:13.561Z,43.70
2019-05-07T12:26:44.313Z,43.80
2019-05-07T12:29:13.524Z,44.50
2019-05-07T12:31:56.123Z,43.70
2019-05-07T12:34:26.965Z,43.50
2019-05-07T12:36:56.203Z,43.60
2019-05-07T12:39:25.411Z,43.60
2019-05-07T12:41:54.634Z,43.50
2019-05-07T12:44:23.839Z,43.60
2019-05-07T12:46:53.078Z,43.60
2019-05-07T12:49:22.313Z,43.50
2019-05-07T12:51:53.238Z,43.40
2019-05-07T12:54:24.100Z,43.50
2019-05-07T12:56:53.334Z,43.30
2019-05-07T12:59:22.586Z,43.20
2019-05-07T13:01:53.627Z,42.80
2019-05-07T13:04:26.991Z,42.90
2019-05-07T13:06:57.859Z,43.10
2019-05-07T13:09:27.060Z,43.20
2019-05-07T13:11:56.326Z,43.30
2019-05-07T13:14:25.553Z,42.80
2019-05-07T13:16:54.775Z,42.90
2019-05-07T13:19:26.769Z,42.60
2019-05-07T13:21:56.020Z,42.30
2019-05-07T13:24:25.310Z,42.20
2019-05-07T13:26:54.556Z,42.30
2019-05-07T13:29:23.786Z,42.40
2019-05-07T13:31:54.352Z,42.30
2019-05-07T13:34:23.726Z,42.50
2019-05-07T13:36:54.817Z,42.80
2019-05-07T13:39:34.672Z,42.70
2019-05-07T13:42:22.008Z,42.30
2019-05-07T13:44:58.920Z,42.20
2019-05-07T13:47:32.799Z,42.20
2019-05-07T13:50:02.654Z,42.10
2019-05-07T13:52:32.949Z,42.10
2019-05-07T13:55:02.374Z,42.00
2019-05-07T13:57:32.212Z,42.00
2019-05-07T14:00:02.344Z,41.80
2019-05-07T14:02:32.699Z,41.60
2019-05-07T14:05:01.900Z,41.40
2019-05-07T14:07:32.764Z,41.60
2019-05-07T14:10:02.227Z,41.30
2019-05-07T14:12:33.697Z,40.60
2019-05-07T14:15:02.728Z,40.30
2019-05-07T14:17:32.277Z,40.00
2019-05-07T14:20:01.862Z,39.70
2019-05-07T14:22:32.469Z,39.90
2019-05-07T14:25:01.683Z,40.10
2019-05-07T14:27:32.133Z,40.30
2019-05-07T14:30:02.720Z,40.50
2019-05-07T14:32:46.116Z,40.10
2019-05-07T14:35:26.095Z,40.30
2019-05-07T14:38:05.982Z,40.70
2019-05-07T14:40:35.235Z,40.00
2019-05-07T14:43:15.416Z,39.80
2019-05-07T14:45:44.624Z,40.10
2019-05-07T14:48:13.925Z,39.90
2019-05-07T14:50:44.946Z,40.00
2019-05-07T14:53:14.080Z,39.70
2019-05-07T14:55:43.278Z,39.40
2019-05-07T14:58:12.573Z,39.60
2019-05-07T15:00:42.705Z,39.30
2019-05-07T15:03:12.638Z,39.20
2019-05-07T15:05:42.372Z,39.60
2019-05-07T15:08:14.412Z,39.50
2019-05-07T15:10:42.737Z,39.70
2019-05-07T15:13:12.746Z,39.70
2019-05-07T15:15:42.348Z,39.20
2019-05-07T15:18:15.818Z,38.80
2019-05-07T15:20:44.319Z,39.10
2019-05-07T15:23:15.330Z,39.00
2019-05-07T15:25:44.560Z,38.80
2019-05-07T15:28:13.835Z,38.70
2019-05-07T15:30:44.715Z,38.90
2019-05-07T15:33:13.930Z,38.40
2019-05-07T15:35:43.148Z,38.30
2019-05-07T15:38:12.422Z,38.40
2019-05-07T15:40:42.254Z,38.30
2019-05-07T15:43:12.847Z,38.40
2019-05-07T15:45:42.323Z,38.00
2019-05-07T15:48:12.673Z,38.20
2019-05-07T15:50:42.891Z,37.80
2019-05-07T15:53:26.017Z,38.00
2019-05-07T15:55:55.262Z,38.40
2019-05-07T15:58:24.464Z,38.30
2019-05-07T16:00:53.695Z,38.60
2019-05-07T16:03:36.580Z,38.80
2019-05-07T16:06:05.820Z,38.80
2019-05-07T16:08:36.656Z,39.00
2019-05-07T16:11:05.881Z,38.40
2019-05-07T16:13:36.742Z,38.50
2019-05-07T16:16:05.957Z,38.20
2019-05-07T16:18:36.814Z,38.20
2019-05-07T16:21:06.035Z,38.30
2019-05-07T16:23:35.244Z,38.40
2019-05-07T16:26:05.318Z,38.20
2019-05-07T16:28:34.660Z,38.20
2019-05-07T16:31:03.877Z,38.10
2019-05-07T16:33:34.805Z,38.10
2019-05-07T16:36:04.129Z,38.00
2019-05-07T16:38:33.338Z,37.80
2019-05-07T16:41:02.560Z,37.60
2019-05-07T16:43:31.765Z,37.40
2019-05-07T16:46:02.447Z,37.40
2019-05-07T16:48:32.758Z,37.50
2019-05-07T16:51:02.402Z,37.80
2019-05-07T16:53:33.047Z,37.80
2019-05-07T16:56:02.979Z,37.60
2019-05-07T16:58:34.998Z,37.60
2019-05-07T17:01:09.111Z,37.70
2019-05-07T17:03:42.790Z,37.40
2019-05-07T17:06:12.426Z,37.70
2019-05-07T17:08:43.539Z,37.50
2019-05-07T17:11:13.021Z,37.00
2019-05-07T17:13:42.503Z,37.40
2019-05-07T17:16:12.352Z,37.40
2019-05-07T17:18:41.709Z,37.70
2019-05-07T17:21:12.336Z,37.60
2019-05-07T17:23:44.618Z,38.60
2019-05-07T17:26:12.654Z,37.80
2019-05-07T17:28:42.575Z,37.90
2019-05-07T17:31:12.446Z,38.10
2019-05-07T17:33:42.496Z,38.20
2019-05-07T17:36:12.207Z,38.60
2019-05-07T17:38:42.847Z,38.50
2019-05-07T17:41:19.944Z,38.80
2019-05-07T17:43:43.185Z,38.50
2019-05-07T17:46:12.418Z,38.60
2019-05-07T17:48:42.860Z,38.80
2019-05-07T17:51:13.952Z,38.90
2019-05-07T17:53:56.587Z,38.90
2019-05-07T17:56:14.113Z,38.80
2019-05-07T17:58:43.359Z,39.10
2019-05-07T18:01:12.569Z,39.40
2019-05-07T18:03:42.918Z,39.60
2019-05-07T18:06:12.591Z,39.70
2019-05-07T18:08:41.983Z,39.90
2019-05-07T18:11:20.920Z,40.00
2019-05-07T18:13:42.610Z,40.10
2019-05-07T18:16:19.802Z,40.10
2019-05-07T18:18:49.024Z,40.30
2019-05-07T18:21:18.217Z,40.50
2019-05-07T18:23:47.451Z,40.60
2019-05-07T18:26:29.755Z,40.50
2019-05-07T18:28:47.607Z,40.90
2019-05-07T18:31:18.378Z,41.40
2019-05-07T18:33:49.222Z,41.00
2019-05-07T18:36:18.427Z,41.00
2019-05-07T18:38:47.721Z,41.00
2019-05-07T18:41:16.919Z,41.00
2019-05-07T18:43:46.170Z,41.20
2019-05-07T18:46:15.382Z,41.30
2019-05-07T18:48:44.625Z,41.40
2019-05-07T18:51:13.809Z,41.40
2019-05-07T18:53:43.051Z,41.50
2019-05-07T18:56:12.802Z,41.60
2019-05-07T18:58:42.711Z,41.60
2019-05-07T19:01:13.784Z,41.60
2019-05-07T19:03:43.061Z,41.80
2019-05-07T19:06:13.391Z,41.80
2019-05-07T19:08:42.924Z,42.10
2019-05-07T19:11:12.489Z,42.10
2019-05-07T19:13:42.174Z,42.20
2019-05-07T19:16:12.460Z,42.40
2019-05-07T19:18:43.067Z,42.50
2019-05-07T19:21:12.529Z,43.10
2019-05-07T19:23:42.375Z,42.40
2019-05-07T19:26:13.132Z,42.50
2019-05-07T19:28:42.511Z,42.60
2019-05-07T19:31:12.429Z,42.70
2019-05-07T19:33:42.101Z,42.80
2019-05-07T19:36:11.340Z,42.90
2019-05-07T19:38:42.068Z,42.90
2019-05-07T19:41:12.350Z,43.10
2019-05-07T19:43:42.057Z,43.10
2019-05-07T19:46:12.307Z,43.10
2019-05-07T19:48:43.855Z,43.20
2019-05-07T19:51:12.797Z,43.20
2019-05-07T19:53:42.118Z,43.40
2019-05-07T19:56:16.167Z,43.90
2019-05-07T19:58:45.382Z,43.50
2019-05-07T20:01:16.231Z,44.10
2019-05-07T20:03:45.441Z,43.50
2019-05-07T20:06:14.666Z,43.50
2019-05-07T20:08:44.022Z,43.60
2019-05-07T20:11:32.441Z,43.60
2019-05-07T20:14:02.100Z,43.70
2019-05-07T20:16:32.961Z,43.60
2019-05-07T20:19:02.349Z,43.70
2019-05-07T20:21:32.634Z,43.90
2019-05-07T20:24:02.134Z,44.00
2019-05-07T20:26:32.623Z,44.00
2019-05-07T20:29:03.099Z,44.10
2019-05-07T20:31:33.595Z,44.20
2019-05-07T20:34:03.166Z,44.20
2019-05-07T20:36:32.910Z,44.30
2019-05-07T20:39:02.418Z,44.40
2019-05-07T20:41:32.878Z,44.40
2019-05-07T20:44:02.994Z,44.60
2019-05-07T20:46:33.348Z,44.70
2019-05-07T20:49:03.090Z,44.70
2019-05-07T20:51:32.727Z,44.80
2019-05-07T20:54:06.478Z,44.90
2019-05-07T20:56:46.815Z,44.90
2019-05-07T20:59:16.108Z,45.00
2019-05-07T21:01:45.333Z,45.00
2019-05-07T21:04:14.552Z,45.10
2019-05-07T21:06:43.799Z,45.10
2019-05-07T21:09:12.995Z,45.20
2019-05-07T21:11:43.042Z,45.20
2019-05-07T21:14:12.523Z,45.30
2019-05-07T21:16:42.525Z,45.30
2019-05-07T21:19:12.780Z,45.30
2019-05-07T21:21:42.499Z,45.40
2019-05-07T21:24:13.071Z,45.50
2019-05-07T21:26:42.634Z,45.60
2019-05-07T21:29:13.731Z,45.60
2019-05-07T21:31:43.257Z,45.70
2019-05-07T21:34:12.733Z,45.70
2019-05-07T21:36:43.207Z,45.80
2019-05-07T21:39:13.168Z,45.80
2019-05-07T21:41:42.946Z,45.70
2019-05-07T21:44:12.212Z,45.70
2019-05-07T21:46:42.620Z,45.90
2019-05-07T21:49:12.391Z,45.90
2019-05-07T21:51:41.747Z,45.90
2019-05-07T21:54:12.635Z,46.00
2019-05-07T21:56:43.483Z,46.10
2019-05-07T21:59:14.368Z,46.20
2019-05-07T22:01:48.173Z,46.20
2019-05-07T22:04:17.434Z,46.40
2019-05-07T22:06:46.641Z,46.50
2019-05-07T22:09:16.442Z,46.50
2019-05-07T22:11:45.652Z,46.50
2019-05-07T22:14:14.906Z,46.60
2019-05-07T22:16:44.257Z,46.70
2019-05-07T22:19:13.574Z,46.70
2019-05-07T22:21:43.317Z,46.60
2019-05-07T22:24:15.077Z,46.70
2019-05-07T22:26:43.634Z,46.70
2019-05-07T22:29:12.864Z,46.80
2019-05-07T22:31:44.202Z,46.90
2019-05-07T22:34:15.388Z,46.80
2019-05-07T22:36:44.601Z,46.90
2019-05-07T22:39:13.855Z,46.80
2019-05-07T22:41:43.081Z,46.90
2019-05-07T22:44:12.327Z,46.90
2019-05-07T22:46:42.211Z,46.90
2019-05-07T22:49:12.303Z,47.00
2019-05-07T22:51:41.636Z,47.10
2019-05-07T22:54:11.860Z,47.10
2019-05-07T22:56:42.793Z,47.20
2019-05-07T22:59:12.206Z,47.10
2019-05-07T23:01:43.026Z,47.10
2019-05-07T23:04:12.288Z,47.20
2019-05-07T23:06:41.869Z,47.20
2019-05-07T23:09:12.841Z,47.20
2019-05-07T23:11:42.219Z,47.30
2019-05-07T23:14:11.898Z,47.20
2019-05-07T23:16:43.058Z,47.20
2019-05-07T23:19:14.099Z,47.40
2019-05-07T23:21:43.469Z,47.30
2019-05-07T23:24:12.670Z,47.50
2019-05-07T23:26:50.265Z,47.50
2019-05-07T23:29:12.851Z,47.40
2019-05-07T23:31:42.092Z,48.00
2019-05-07T23:34:12.555Z,47.60
2019-05-07T23:36:42.228Z,47.60
2019-05-07T23:39:13.196Z,47.60
2019-05-07T23:41:53.071Z,47.70
2019-05-07T23:44:22.879Z,47.70
2019-05-07T23:46:52.307Z,47.80
2019-05-07T23:49:23.181Z,47.80
2019-05-07T23:51:53.235Z,47.90
2019-05-07T23:54:23.287Z,47.90
2019-05-07T23:57:05.034Z,48.00
2019-05-07T23:59:23.606Z,48.00
